General Aviation Weather

Text Reports

Enter one or more of the following location identifiers separated by a space:

Zip Code, Four-Character ICAO or Three-Character IATA airport codes.

METAR - Aviation Routine Weather Report
KMLB - Melbourne, Florida
Updated at 9:53 AM GMT on January 30, 2015 (4:53 AM EST):
METAR KMLB 300953Z AUTO 28003KT 10SM CLR 09/08 A3017 RMK AO2 SLP217 T00940078
TAF - Terminal Area Forecast
KMLB - Melbourne, Florida
Updated at 9:53 AM GMT on January 30, 2015 (4:53 AM EST):
No TAF is currently available for this location.
Decoded:
No decoded TAF is available.
PIREP - Pilot Weather Report
KMLB - Melbourne, Florida
Updated at 9:53 AM GMT on January 30, 2015 (4:53 AM EST):
No PIREP is currently available for this location.
AIRMET - Airmens Meteorological Information
KMLB - Melbourne, Florida
Updated at 9:53 AM GMT on January 30, 2015 (4:53 AM EST):
No AIRMET is currently available for this location.
SIGMET - Significant Meteorological Information
KMLB - Melbourne, Florida
Updated at 9:53 AM GMT on January 30, 2015 (4:53 AM EST):
No SIGMET is currently available for this location.
NOTAM - Notice to Airmen
KMLB - Melbourne, Florida
Updated at 9:53 AM GMT on January 30, 2015 (4:53 AM EST):
No NOTAM is currently available for this location.
Forecast Area
KMLB - Melbourne, Florida
Updated at 9:53 AM GMT on January 30, 2015 (4:53 AM EST):
No NOTAM is currently available for this location.
Aviation Weather Maps